createdAt,value
2018-06-28T00:00:46.593Z,1013.74
2018-06-28T00:01:46.522Z,1013.73
2018-06-28T00:02:46.569Z,1013.73
2018-06-28T00:03:46.607Z,1013.69
2018-06-28T00:04:46.642Z,1013.74
2018-06-28T00:05:46.648Z,1013.69
2018-06-28T00:06:46.558Z,1013.75
2018-06-28T00:07:46.569Z,1013.70
2018-06-28T00:08:46.692Z,1013.74
2018-06-28T00:09:46.608Z,1013.71
2018-06-28T00:10:46.574Z,1013.68
2018-06-28T00:11:46.564Z,1013.67
2018-06-28T00:12:46.614Z,1013.76
2018-06-28T00:13:46.612Z,1013.70
2018-06-28T00:14:46.546Z,1013.73
2018-06-28T00:15:46.613Z,1013.71
2018-06-28T00:16:46.616Z,1013.69
2018-06-28T00:17:46.548Z,1013.66
2018-06-28T00:18:46.639Z,1013.67
2018-06-28T00:19:46.616Z,1013.66
2018-06-28T00:20:46.615Z,1013.70
2018-06-28T00:21:46.555Z,1013.72
2018-06-28T00:22:46.538Z,1013.67
2018-06-28T00:23:46.633Z,1013.65
2018-06-28T00:24:46.562Z,1013.69
2018-06-28T00:25:46.611Z,1013.62
2018-06-28T00:26:46.616Z,1013.72
2018-06-28T00:27:46.526Z,1013.73
2018-06-28T00:28:46.610Z,1013.66
2018-06-28T00:29:46.509Z,1013.69
2018-06-28T00:30:46.540Z,1013.71
2018-06-28T00:31:46.561Z,1013.72
2018-06-28T00:32:46.586Z,1013.74
2018-06-28T00:33:46.587Z,1013.76
2018-06-28T00:34:46.541Z,1013.69
2018-06-28T00:35:46.564Z,1013.73
2018-06-28T00:36:46.626Z,1013.72
2018-06-28T00:37:46.685Z,1013.75
2018-06-28T00:38:46.581Z,1013.74
2018-06-28T00:39:46.657Z,1013.75
2018-06-28T00:40:46.622Z,1013.70
2018-06-28T00:41:46.590Z,1013.71
2018-06-28T00:42:46.592Z,1013.75
2018-06-28T00:43:46.636Z,1013.74
2018-06-28T00:44:46.670Z,1013.75
2018-06-28T00:45:46.675Z,1013.76
2018-06-28T00:46:46.659Z,1013.76
2018-06-28T00:47:46.641Z,1013.74
2018-06-28T00:48:46.600Z,1013.77
2018-06-28T00:49:46.673Z,1013.79
2018-06-28T00:50:46.660Z,1013.83
2018-06-28T00:51:46.605Z,1013.79
2018-06-28T00:52:46.622Z,1013.78
2018-06-28T00:53:46.627Z,1013.84
2018-06-28T00:54:46.554Z,1013.83
2018-06-28T00:55:46.627Z,1013.82
2018-06-28T00:56:46.599Z,1013.82
2018-06-28T00:57:46.638Z,1013.81
2018-06-28T00:58:46.580Z,1013.81
2018-06-28T00:59:46.569Z,1013.84
2018-06-28T01:00:46.510Z,1013.85
2018-06-28T01:01:46.564Z,1013.82
2018-06-28T01:02:46.679Z,1013.83
2018-06-28T01:03:46.565Z,1013.85
2018-06-28T01:04:46.668Z,1013.84
2018-06-28T01:05:46.660Z,1013.82
2018-06-28T01:06:46.679Z,1013.81
2018-06-28T01:07:46.626Z,1013.79
2018-06-28T01:08:46.582Z,1013.78
2018-06-28T01:09:46.680Z,1013.75
2018-06-28T01:10:46.650Z,1013.77
2018-06-28T01:11:46.646Z,1013.78
2018-06-28T01:12:46.567Z,1013.77
2018-06-28T01:13:46.610Z,1013.78
2018-06-28T01:14:46.617Z,1013.77
2018-06-28T01:15:46.622Z,1013.72
2018-06-28T01:16:46.608Z,1013.73
2018-06-28T01:17:46.680Z,1013.70
2018-06-28T01:18:46.615Z,1013.71
2018-06-28T01:19:46.685Z,1013.71
2018-06-28T01:20:46.629Z,1013.71
2018-06-28T01:21:46.694Z,1013.73
2018-06-28T01:22:46.588Z,1013.73
2018-06-28T01:23:46.660Z,1013.72
2018-06-28T01:24:46.636Z,1013.77
2018-06-28T01:25:46.589Z,1013.77
2018-06-28T01:26:46.662Z,1013.79
2018-06-28T01:27:46.663Z,1013.80
2018-06-28T01:28:46.662Z,1013.80
2018-06-28T01:29:46.593Z,1013.84
2018-06-28T01:30:46.662Z,1013.79
2018-06-28T01:31:46.664Z,1013.79
2018-06-28T01:32:46.600Z,1013.80
2018-06-28T01:33:46.662Z,1013.81
2018-06-28T01:34:46.664Z,1013.80
2018-06-28T01:35:46.665Z,1013.80
2018-06-28T01:36:46.665Z,1013.77
2018-06-28T01:37:46.616Z,1013.78
2018-06-28T01:38:46.601Z,1013.79
2018-06-28T01:39:46.671Z,1013.82
2018-06-28T01:40:46.608Z,1013.83
2018-06-28T01:41:46.669Z,1013.78
2018-06-28T01:42:46.615Z,1013.83
2018-06-28T01:43:46.575Z,1013.82
2018-06-28T01:44:46.631Z,1013.82
2018-06-28T01:45:46.640Z,1013.84
2018-06-28T01:46:46.727Z,1013.83
2018-06-28T01:47:46.683Z,1013.80
2018-06-28T01:48:46.658Z,1013.77
2018-06-28T01:49:46.672Z,1013.79
2018-06-28T01:50:46.711Z,1013.73
2018-06-28T01:51:46.672Z,1013.75
2018-06-28T01:52:46.544Z,1013.75
2018-06-28T01:53:46.671Z,1013.73
2018-06-28T01:54:46.582Z,1013.73
2018-06-28T01:55:46.618Z,1013.73
2018-06-28T01:56:46.614Z,1013.72
2018-06-28T01:57:46.665Z,1013.76
2018-06-28T01:58:46.552Z,1013.72
2018-06-28T01:59:46.679Z,1013.78
2018-06-28T02:00:46.615Z,1013.81
2018-06-28T02:01:46.678Z,1013.73
2018-06-28T02:02:46.682Z,1013.85
2018-06-28T02:03:46.620Z,1013.84
2018-06-28T02:04:46.669Z,1013.80
2018-06-28T02:05:46.723Z,1013.79
2018-06-28T02:06:46.646Z,1013.75
2018-06-28T02:07:46.717Z,1013.70
2018-06-28T02:08:46.717Z,1013.71
2018-06-28T02:09:46.614Z,1013.70
2018-06-28T02:10:46.727Z,1013.68
2018-06-28T02:11:46.641Z,1013.67
2018-06-28T02:12:46.721Z,1013.70
2018-06-28T02:13:46.613Z,1013.68
2018-06-28T02:14:46.688Z,1013.70
2018-06-28T02:15:46.691Z,1013.73
2018-06-28T02:16:46.696Z,1013.72
2018-06-28T02:17:46.725Z,1013.71
2018-06-28T02:18:46.716Z,1013.67
2018-06-28T02:19:46.658Z,1013.72
2018-06-28T02:20:46.599Z,1013.72
2018-06-28T02:21:46.632Z,1013.69
2018-06-28T02:22:46.593Z,1013.65
2018-06-28T02:23:46.751Z,1013.64
2018-06-28T02:24:46.720Z,1013.61
2018-06-28T02:25:46.718Z,1013.67
2018-06-28T02:26:46.727Z,1013.61
2018-06-28T02:27:46.719Z,1013.65
2018-06-28T02:28:46.728Z,1013.68
2018-06-28T02:29:46.663Z,1013.70
2018-06-28T02:30:46.606Z,1013.66
2018-06-28T02:31:46.731Z,1013.66
2018-06-28T02:32:46.723Z,1013.62
2018-06-28T02:33:46.704Z,1013.65
2018-06-28T02:34:46.641Z,1013.63
2018-06-28T02:35:46.636Z,1013.58
2018-06-28T02:36:46.705Z,1013.55
2018-06-28T02:37:46.639Z,1013.59
2018-06-28T02:38:46.646Z,1013.61
2018-06-28T02:39:46.706Z,1013.58
2018-06-28T02:40:46.644Z,1013.58
2018-06-28T02:41:46.710Z,1013.57
2018-06-28T02:42:46.728Z,1013.56
2018-06-28T02:43:46.708Z,1013.58
2018-06-28T02:44:46.709Z,1013.52
2018-06-28T02:45:46.643Z,1013.61
2018-06-28T02:46:46.653Z,1013.59
2018-06-28T02:47:46.646Z,1013.59
2018-06-28T02:48:46.650Z,1013.58
2018-06-28T02:49:46.652Z,1013.60
2018-06-28T02:50:46.721Z,1013.59
2018-06-28T02:51:46.657Z,1013.59
2018-06-28T02:52:46.648Z,1013.56
2018-06-28T02:53:46.677Z,1013.54
2018-06-28T02:54:46.657Z,1013.55
2018-06-28T02:55:46.637Z,1013.53
2018-06-28T02:56:46.675Z,1013.53
2018-06-28T02:57:46.587Z,1013.49
2018-06-28T02:58:46.677Z,1013.50
2018-06-28T02:59:46.712Z,1013.46
2018-06-28T03:00:46.659Z,1013.51
2018-06-28T03:01:46.749Z,1013.47
2018-06-28T03:02:46.649Z,1013.53
2018-06-28T03:03:46.624Z,1013.51
2018-06-28T03:04:46.648Z,1013.55
2018-06-28T03:05:46.743Z,1013.57
2018-06-28T03:06:46.838Z,1013.57
2018-06-28T03:07:46.756Z,1013.54
2018-06-28T03:08:46.732Z,1013.55
2018-06-28T03:09:46.731Z,1013.58
2018-06-28T03:10:46.701Z,1013.57
2018-06-28T03:11:46.694Z,1013.61
2018-06-28T03:12:46.668Z,1013.58
2018-06-28T03:13:46.653Z,1013.60
2018-06-28T03:14:46.726Z,1013.59
2018-06-28T03:15:46.727Z,1013.59
2018-06-28T03:16:46.656Z,1013.61
2018-06-28T03:17:46.728Z,1013.60
2018-06-28T03:18:46.721Z,1013.60
2018-06-28T03:19:46.723Z,1013.61
2018-06-28T03:20:46.651Z,1013.60
2018-06-28T03:21:46.721Z,1013.61
2018-06-28T03:22:46.730Z,1013.59
2018-06-28T03:23:46.752Z,1013.60
2018-06-28T03:24:46.684Z,1013.57
2018-06-28T03:25:46.762Z,1013.56
2018-06-28T03:26:46.677Z,1013.58
2018-06-28T03:27:46.777Z,1013.58
2018-06-28T03:28:46.736Z,1013.56
2018-06-28T03:29:46.652Z,1013.61
2018-06-28T03:30:46.660Z,1013.62
2018-06-28T03:31:46.764Z,1013.63
2018-06-28T03:32:46.706Z,1013.60
2018-06-28T03:33:46.648Z,1013.61
2018-06-28T03:34:46.708Z,1013.60
2018-06-28T03:35:46.644Z,1013.60
2018-06-28T03:36:46.746Z,1013.58
2018-06-28T03:37:46.754Z,1013.64
2018-06-28T03:38:46.745Z,1013.62
2018-06-28T03:39:46.772Z,1013.63
2018-06-28T03:40:46.745Z,1013.57
2018-06-28T03:41:46.705Z,1013.60
2018-06-28T03:42:46.783Z,1013.63
2018-06-28T03:43:46.708Z,1013.64
2018-06-28T03:44:46.667Z,1013.61
2018-06-28T03:45:46.683Z,1013.58
2018-06-28T03:46:46.677Z,1013.62
2018-06-28T03:47:46.624Z,1013.62
2018-06-28T03:48:46.620Z,1013.64
2018-06-28T03:49:46.617Z,1013.63
2018-06-28T03:50:46.709Z,1013.68
2018-06-28T03:51:46.687Z,1013.68
2018-06-28T03:52:46.732Z,1013.64
2018-06-28T03:53:46.754Z,1013.67
2018-06-28T03:54:46.761Z,1013.66
2018-06-28T03:55:46.692Z,1013.68
2018-06-28T03:56:46.756Z,1013.67
2018-06-28T03:57:46.760Z,1013.70
2018-06-28T03:58:46.690Z,1013.71
2018-06-28T03:59:46.688Z,1013.68
2018-06-28T04:00:46.757Z,1013.71
2018-06-28T04:01:46.726Z,1013.67
2018-06-28T04:02:46.782Z,1013.68
2018-06-28T04:03:46.691Z,1013.68
2018-06-28T04:04:46.648Z,1013.69
2018-06-28T04:05:46.695Z,1013.61
2018-06-28T04:06:46.701Z,1013.63
2018-06-28T04:07:46.701Z,1013.67
2018-06-28T04:08:46.656Z,1013.66
2018-06-28T04:09:46.768Z,1013.66
2018-06-28T04:10:46.632Z,1013.65
2018-06-28T04:11:46.733Z,1013.65
2018-06-28T04:12:46.704Z,1013.69
2018-06-28T04:13:46.745Z,1013.75
2018-06-28T04:14:46.776Z,1013.74
2018-06-28T04:15:46.799Z,1013.80
2018-06-28T04:16:46.773Z,1013.78
2018-06-28T04:17:46.674Z,1013.85
2018-06-28T04:18:46.738Z,1013.83
2018-06-28T04:19:46.696Z,1013.87
2018-06-28T04:20:46.675Z,1013.83
2018-06-28T04:21:46.694Z,1013.86
2018-06-28T04:22:46.812Z,1013.89
2018-06-28T04:23:46.694Z,1013.83
2018-06-28T04:24:46.745Z,1013.85
2018-06-28T04:25:46.776Z,1013.86
2018-06-28T04:26:46.779Z,1013.89
2018-06-28T04:27:46.814Z,1013.87
2018-06-28T04:28:46.750Z,1013.89
2018-06-28T04:29:46.701Z,1013.90
2018-06-28T04:30:46.700Z,1013.92
2018-06-28T04:31:46.717Z,1013.87
2018-06-28T04:32:46.812Z,1013.87
2018-06-28T04:33:46.651Z,1013.87
2018-06-28T04:34:46.745Z,1013.90
2018-06-28T04:35:46.684Z,1013.89
2018-06-28T04:36:46.739Z,1013.90
2018-06-28T04:37:46.682Z,1013.90
2018-06-28T04:38:46.708Z,1013.91
2018-06-28T04:39:46.725Z,1013.89
2018-06-28T04:40:46.674Z,1013.93
2018-06-28T04:41:46.654Z,1013.94
2018-06-28T04:42:46.682Z,1013.94
2018-06-28T04:43:46.788Z,1013.88
2018-06-28T04:44:46.788Z,1013.88
2018-06-28T04:45:46.727Z,1013.84
2018-06-28T04:46:46.798Z,1013.86
2018-06-28T04:47:46.724Z,1013.83
2018-06-28T04:48:46.722Z,1013.81
2018-06-28T04:49:46.836Z,1013.81
2018-06-28T04:50:46.851Z,1013.80
2018-06-28T04:51:46.727Z,1013.79
2018-06-28T04:52:46.727Z,1013.82
2018-06-28T04:53:46.773Z,1013.79
2018-06-28T04:54:46.872Z,1013.83
2018-06-28T04:55:46.759Z,1013.82
2018-06-28T04:56:46.696Z,1013.85
2018-06-28T04:57:46.827Z,1013.85
2018-06-28T04:58:46.793Z,1013.81
2018-06-28T04:59:46.717Z,1013.81
2018-06-28T05:00:46.823Z,1013.84
2018-06-28T05:01:46.769Z,1013.80
2018-06-28T05:02:46.805Z,1013.82
2018-06-28T05:03:46.723Z,1013.79
2018-06-28T05:04:46.784Z,1013.82
2018-06-28T05:05:46.764Z,1013.79
2018-06-28T05:06:46.760Z,1013.78
2018-06-28T05:07:46.706Z,1013.74
2018-06-28T05:08:46.767Z,1013.77
2018-06-28T05:09:46.814Z,1013.72
2018-06-28T05:10:46.825Z,1013.76
2018-06-28T05:11:46.830Z,1013.71
2018-06-28T05:12:46.831Z,1013.72
2018-06-28T05:13:46.761Z,1013.70
2018-06-28T05:14:46.789Z,1013.67
2018-06-28T05:15:46.772Z,1013.65
2018-06-28T05:16:46.830Z,1013.69
2018-06-28T05:17:46.811Z,1013.67
2018-06-28T05:18:46.780Z,1013.64
2018-06-28T05:19:46.773Z,1013.67
2018-06-28T05:20:46.814Z,1013.62
2018-06-28T05:21:46.718Z,1013.61
2018-06-28T05:22:46.853Z,1013.61
2018-06-28T05:23:46.736Z,1013.63
2018-06-28T05:24:46.722Z,1013.59
2018-06-28T05:25:46.803Z,1013.56
2018-06-28T05:26:46.810Z,1013.57
2018-06-28T05:27:46.725Z,1013.57
2018-06-28T05:28:46.806Z,1013.55
2018-06-28T05:29:46.755Z,1013.58
2018-06-28T05:30:46.685Z,1013.55
2018-06-28T05:31:46.752Z,1013.55
2018-06-28T05:32:46.809Z,1013.55
2018-06-28T05:33:46.822Z,1013.55
2018-06-28T05:34:46.893Z,1013.50
2018-06-28T05:35:46.896Z,1013.48
2018-06-28T05:36:46.724Z,1013.47
2018-06-28T05:37:46.789Z,1013.50
2018-06-28T05:38:46.787Z,1013.49
2018-06-28T05:39:46.842Z,1013.50
2018-06-28T05:40:46.858Z,1013.51
2018-06-28T05:41:46.767Z,1013.54
2018-06-28T05:42:46.797Z,1013.54
2018-06-28T05:43:46.857Z,1013.52
2018-06-28T05:44:46.734Z,1013.51
2018-06-28T05:45:46.731Z,1013.50
2018-06-28T05:46:46.789Z,1013.52
2018-06-28T05:47:46.811Z,1013.57
2018-06-28T05:48:46.848Z,1013.57
2018-06-28T05:49:46.796Z,1013.58
2018-06-28T05:50:46.829Z,1013.57
2018-06-28T05:51:46.857Z,1013.58
2018-06-28T05:52:46.774Z,1013.59
2018-06-28T05:53:46.730Z,1013.61
2018-06-28T05:54:46.756Z,1013.58
2018-06-28T05:55:46.754Z,1013.61
2018-06-28T05:56:46.836Z,1013.61
2018-06-28T05:57:46.857Z,1013.58
2018-06-28T05:58:46.876Z,1013.61
2018-06-28T05:59:46.862Z,1013.57
2018-06-28T06:00:46.809Z,1013.59
2018-06-28T06:01:47.035Z,1013.57
2018-06-28T06:02:46.794Z,1013.55
2018-06-28T06:03:46.763Z,1013.53
2018-06-28T06:04:46.877Z,1013.55
2018-06-28T06:05:46.811Z,1013.54
2018-06-28T06:06:46.879Z,1013.54
2018-06-28T06:07:46.869Z,1013.54
2018-06-28T06:08:46.823Z,1013.55
2018-06-28T06:09:46.769Z,1013.53
2018-06-28T06:10:46.748Z,1013.56
2018-06-28T06:11:46.845Z,1013.54
2018-06-28T06:12:46.828Z,1013.53
2018-06-28T06:13:46.879Z,1013.54
2018-06-28T06:14:46.809Z,1013.51
2018-06-28T06:15:46.759Z,1013.50
2018-06-28T06:16:46.850Z,1013.46
2018-06-28T06:17:46.852Z,1013.50
2018-06-28T06:18:46.817Z,1013.49
2018-06-28T06:19:46.889Z,1013.47
2018-06-28T06:20:46.831Z,1013.41
2018-06-28T06:21:46.898Z,1013.42
2018-06-28T06:22:46.760Z,1013.43
2018-06-28T06:23:46.759Z,1013.41
2018-06-28T06:24:46.882Z,1013.45
2018-06-28T06:25:46.813Z,1013.46
2018-06-28T06:26:46.878Z,1013.45
2018-06-28T06:27:46.887Z,1013.49
2018-06-28T06:28:46.858Z,1013.46
2018-06-28T06:29:46.861Z,1013.45
2018-06-28T06:30:46.836Z,1013.45
2018-06-28T06:31:46.887Z,1013.47
2018-06-28T06:32:46.934Z,1013.47
2018-06-28T06:33:46.756Z,1013.51
2018-06-28T06:34:46.821Z,1013.52
2018-06-28T06:35:46.760Z,1013.51
2018-06-28T06:36:46.900Z,1013.51
2018-06-28T06:37:46.904Z,1013.49
2018-06-28T06:38:46.767Z,1013.50
2018-06-28T06:39:46.769Z,1013.45
2018-06-28T06:40:46.885Z,1013.48
2018-06-28T06:41:46.877Z,1013.50
2018-06-28T06:42:46.884Z,1013.54
2018-06-28T06:43:46.820Z,1013.48
2018-06-28T06:44:46.858Z,1013.46
2018-06-28T06:45:46.777Z,1013.50
2018-06-28T06:46:46.863Z,1013.43
2018-06-28T06:47:46.774Z,1013.41
2018-06-28T06:48:46.854Z,1013.41
2018-06-28T06:49:46.800Z,1013.40
2018-06-28T06:50:46.759Z,1013.36
2018-06-28T06:51:46.743Z,1013.38
2018-06-28T06:52:46.745Z,1013.32
2018-06-28T06:53:46.862Z,1013.33
2018-06-28T06:54:46.830Z,1013.33
2018-06-28T06:55:46.763Z,1013.31
2018-06-28T06:56:46.827Z,1013.27
2018-06-28T06:57:46.766Z,1013.29
2018-06-28T06:58:46.803Z,1013.29
2018-06-28T06:59:46.864Z,1013.27
2018-06-28T07:00:46.769Z,1013.27
2018-06-28T07:01:46.837Z,1013.24
2018-06-28T07:02:46.811Z,1013.20
2018-06-28T07:03:46.912Z,1013.19
2018-06-28T07:04:46.905Z,1013.16
2018-06-28T07:05:46.907Z,1013.11
2018-06-28T07:06:46.880Z,1013.14
2018-06-28T07:07:46.887Z,1013.15
2018-06-28T07:08:46.904Z,1013.11
2018-06-28T07:09:46.915Z,1013.09
2018-06-28T07:10:46.908Z,1013.10
2018-06-28T07:11:46.862Z,1013.04
2018-06-28T07:12:46.786Z,1013.05
2018-06-28T07:13:46.882Z,1013.03
2018-06-28T07:14:46.845Z,1012.99
2018-06-28T07:15:46.929Z,1012.98
2018-06-28T07:16:46.891Z,1012.99
2018-06-28T07:17:46.889Z,1012.98
2018-06-28T07:18:46.823Z,1012.93
2018-06-28T07:19:46.896Z,1012.95
2018-06-28T07:20:46.826Z,1012.88
2018-06-28T07:21:46.894Z,1012.85
2018-06-28T07:22:46.965Z,1012.85
2018-06-28T07:23:46.919Z,1012.86
2018-06-28T07:24:46.800Z,1012.80
2018-06-28T07:25:46.853Z,1012.84
2018-06-28T07:26:46.922Z,1012.86
2018-06-28T07:27:46.877Z,1012.85
2018-06-28T07:28:46.880Z,1012.79
2018-06-28T07:29:46.839Z,1012.80
2018-06-28T07:30:46.879Z,1012.82
2018-06-28T07:31:46.837Z,1012.78
2018-06-28T07:32:46.975Z,1012.77
2018-06-28T07:33:46.837Z,1012.78
2018-06-28T07:34:46.801Z,1012.77
2018-06-28T07:35:46.905Z,1012.79
2018-06-28T07:36:46.903Z,1012.80
2018-06-28T07:37:46.853Z,1012.79
2018-06-28T07:38:46.903Z,1012.80
2018-06-28T07:39:46.904Z,1012.80
2018-06-28T07:40:46.837Z,1012.84
2018-06-28T07:41:46.853Z,1012.74
2018-06-28T07:42:46.911Z,1012.75
2018-06-28T07:43:46.840Z,1012.73
2018-06-28T07:44:46.907Z,1012.73
2018-06-28T07:45:46.840Z,1012.75
2018-06-28T07:46:46.944Z,1012.72
2018-06-28T07:47:47.089Z,1012.67
2018-06-28T07:48:46.851Z,1012.70
2018-06-28T07:49:47.097Z,1012.69
2018-06-28T07:50:47.079Z,1012.68
2018-06-28T07:51:46.851Z,1012.67
2018-06-28T07:52:46.846Z,1012.66
2018-06-28T07:53:46.918Z,1012.66
2018-06-28T07:54:46.914Z,1012.63
2018-06-28T07:55:46.982Z,1012.63
2018-06-28T07:56:46.847Z,1012.60
2018-06-28T07:57:46.919Z,1012.56
2018-06-28T07:58:46.851Z,1012.54
2018-06-28T07:59:47.009Z,1012.55
2018-06-28T08:00:46.918Z,1012.50
2018-06-28T08:01:46.856Z,1012.51
2018-06-28T08:02:46.854Z,1012.48
2018-06-28T08:03:46.876Z,1012.49
2018-06-28T08:04:46.886Z,1012.52
2018-06-28T08:05:46.884Z,1012.52
2018-06-28T08:06:46.833Z,1012.54
2018-06-28T08:07:46.900Z,1012.59
2018-06-28T08:08:46.941Z,1012.56
2018-06-28T08:09:47.005Z,1012.56
2018-06-28T08:10:46.900Z,1012.52
2018-06-28T08:11:46.894Z,1012.50
2018-06-28T08:12:46.928Z,1012.54
2018-06-28T08:13:46.953Z,1012.54
2018-06-28T08:14:46.903Z,1012.57
2018-06-28T08:15:46.890Z,1012.50
2018-06-28T08:16:46.910Z,1012.48
2018-06-28T08:17:46.895Z,1012.48
2018-06-28T08:18:46.837Z,1012.51
2018-06-28T08:19:46.916Z,1012.51
2018-06-28T08:20:46.928Z,1012.51
2018-06-28T08:21:46.972Z,1012.54
2018-06-28T08:22:46.970Z,1012.59
2018-06-28T08:23:46.907Z,1012.56
2018-06-28T08:24:46.936Z,1012.55
2018-06-28T08:25:46.953Z,1012.55
2018-06-28T08:26:46.840Z,1012.63
2018-06-28T08:27:46.954Z,1012.61
2018-06-28T08:28:46.959Z,1012.61
2018-06-28T08:29:46.966Z,1012.63
2018-06-28T08:30:46.937Z,1012.60
2018-06-28T08:31:46.978Z,1012.63
2018-06-28T08:32:46.974Z,1012.60
2018-06-28T08:33:46.842Z,1012.55
2018-06-28T08:34:46.874Z,1012.60
2018-06-28T08:35:46.909Z,1012.59
2018-06-28T08:36:46.939Z,1012.59
2018-06-28T08:37:46.876Z,1012.57
2018-06-28T08:38:46.956Z,1012.57
2018-06-28T08:39:46.919Z,1012.56
2018-06-28T08:40:46.880Z,1012.55
2018-06-28T08:41:46.877Z,1012.57
2018-06-28T08:42:46.945Z,1012.57
2018-06-28T08:43:46.947Z,1012.60
2018-06-28T08:44:46.867Z,1012.56
2018-06-28T08:45:46.867Z,1012.56
2018-06-28T08:46:46.934Z,1012.52
2018-06-28T08:47:46.857Z,1012.54
2018-06-28T08:48:46.944Z,1012.58
2018-06-28T08:49:46.887Z,1012.53
2018-06-28T08:50:46.858Z,1012.47
2018-06-28T08:51:46.935Z,1012.49
2018-06-28T08:52:46.856Z,1012.49
2018-06-28T08:53:46.862Z,1012.45
2018-06-28T08:54:46.914Z,1012.48
2018-06-28T08:55:47.036Z,1012.45
2018-06-28T08:56:46.978Z,1012.46
2018-06-28T08:57:47.024Z,1012.48
2018-06-28T08:58:46.981Z,1012.47
2018-06-28T08:59:46.919Z,1012.47
2018-06-28T09:00:46.936Z,1012.52
2018-06-28T09:01:46.975Z,1012.43
2018-06-28T09:02:46.987Z,1012.40
2018-06-28T09:03:46.898Z,1012.45
2018-06-28T09:04:46.863Z,1012.42
2018-06-28T09:05:46.978Z,1012.41
2018-06-28T09:06:46.915Z,1012.40
2018-06-28T09:07:46.963Z,1012.39
2018-06-28T09:08:46.953Z,1012.38
2018-06-28T09:09:46.954Z,1012.38
2018-06-28T09:10:46.895Z,1012.35
2018-06-28T09:11:46.894Z,1012.34
2018-06-28T09:12:46.900Z,1012.41
2018-06-28T09:13:46.958Z,1012.34
2018-06-28T09:14:46.991Z,1012.39
2018-06-28T09:15:46.999Z,1012.31
2018-06-28T09:16:46.888Z,1012.35
2018-06-28T09:17:46.934Z,1012.35
2018-06-28T09:18:46.944Z,1012.31
2018-06-28T09:19:46.907Z,1012.30
2018-06-28T09:20:46.876Z,1012.34
2018-06-28T09:21:46.967Z,1012.30
2018-06-28T09:22:47.058Z,1012.29
2018-06-28T09:23:46.999Z,1012.25
2018-06-28T09:24:47.007Z,1012.26
2018-06-28T09:25:46.897Z,1012.21
2018-06-28T09:26:47.056Z,1012.26
2018-06-28T09:27:46.955Z,1012.22
2018-06-28T09:28:46.900Z,1012.21
2018-06-28T09:29:47.004Z,1012.19
2018-06-28T09:30:46.958Z,1012.23
2018-06-28T09:31:46.981Z,1012.23
2018-06-28T09:32:46.935Z,1012.20
2018-06-28T09:33:46.949Z,1012.20
2018-06-28T09:34:46.943Z,1012.22
2018-06-28T09:35:46.954Z,1012.21
2018-06-28T09:36:47.012Z,1012.24
2018-06-28T09:37:46.945Z,1012.19
2018-06-28T09:38:46.908Z,1012.18
2018-06-28T09:39:46.944Z,1012.19
2018-06-28T09:40:47.005Z,1012.21
2018-06-28T09:41:46.942Z,1012.19
2018-06-28T09:42:46.983Z,1012.18
2018-06-28T09:43:47.002Z,1012.19
2018-06-28T09:44:46.922Z,1012.12
2018-06-28T09:45:46.925Z,1012.12
2018-06-28T09:46:46.988Z,1012.13
2018-06-28T09:47:46.988Z,1012.12
2018-06-28T09:48:47.083Z,1012.09
2018-06-28T09:49:46.990Z,1012.07
2018-06-28T09:50:46.989Z,1012.05
2018-06-28T09:51:46.927Z,1012.10
2018-06-28T09:52:47.032Z,1012.06
2018-06-28T09:53:46.932Z,1012.07
2018-06-28T09:54:46.999Z,1012.10
2018-06-28T09:55:46.869Z,1012.05
2018-06-28T09:56:46.972Z,1012.11
2018-06-28T09:57:46.975Z,1012.10
2018-06-28T09:58:46.986Z,1012.04
2018-06-28T09:59:46.934Z,1012.04
2018-06-28T10:00:46.983Z,1011.99
2018-06-28T10:01:46.862Z,1012.01
2018-06-28T10:02:46.993Z,1011.99
2018-06-28T10:03:46.924Z,1011.97
2018-06-28T10:04:46.889Z,1011.95
2018-06-28T10:05:46.989Z,1011.99
2018-06-28T10:06:47.031Z,1011.88
2018-06-28T10:07:46.986Z,1011.91
2018-06-28T10:08:46.954Z,1011.98
2018-06-28T10:09:46.943Z,1011.95
2018-06-28T10:10:46.923Z,1011.96
2018-06-28T10:11:46.955Z,1011.93
2018-06-28T10:12:47.011Z,1011.99
2018-06-28T10:13:46.934Z,1011.94
2018-06-28T10:14:47.040Z,1011.89
2018-06-28T10:15:46.870Z,1011.87
2018-06-28T10:16:46.986Z,1011.81
2018-06-28T10:17:46.931Z,1011.79
2018-06-28T10:18:46.993Z,1011.80
2018-06-28T10:19:46.947Z,1011.74
2018-06-28T10:20:46.920Z,1011.72
2018-06-28T10:21:46.935Z,1011.78
2018-06-28T10:22:46.992Z,1011.74
2018-06-28T10:23:46.937Z,1011.70
2018-06-28T10:24:47.015Z,1011.71
2018-06-28T10:25:47.023Z,1011.66
2018-06-28T10:26:47.014Z,1011.67
2018-06-28T10:27:46.964Z,1011.61
2018-06-28T10:28:47.016Z,1011.67
2018-06-28T10:29:46.952Z,1011.75
2018-06-28T10:30:47.034Z,1011.72
2018-06-28T10:31:46.904Z,1011.69
2018-06-28T10:32:47.000Z,1011.68
2018-06-28T10:33:46.945Z,1011.66
2018-06-28T10:34:46.891Z,1011.60
2018-06-28T10:35:46.892Z,1011.52
2018-06-28T10:36:46.975Z,1011.55
2018-06-28T10:37:47.007Z,1011.58
2018-06-28T10:38:46.926Z,1011.61
2018-06-28T10:39:47.005Z,1011.58
2018-06-28T10:40:47.014Z,1011.60
2018-06-28T10:41:47.010Z,1011.60
2018-06-28T10:42:47.018Z,1011.52
2018-06-28T10:43:47.011Z,1011.58
2018-06-28T10:44:46.932Z,1011.50
2018-06-28T10:45:46.948Z,1011.57
2018-06-28T10:46:47.007Z,1011.44
2018-06-28T10:47:46.970Z,1011.43
2018-06-28T10:48:47.046Z,1011.47
2018-06-28T10:49:47.033Z,1011.53
2018-06-28T10:50:46.950Z,1011.46
2018-06-28T10:51:47.009Z,1011.46
2018-06-28T10:52:46.932Z,1011.45
2018-06-28T10:53:46.999Z,1011.45
2018-06-28T10:54:47.018Z,1011.44
2018-06-28T10:55:46.964Z,1011.48
2018-06-28T10:56:46.968Z,1011.49
2018-06-28T10:57:46.923Z,1011.48
2018-06-28T10:58:47.021Z,1011.49
2018-06-28T10:59:46.941Z,1011.45
2018-06-28T11:00:46.938Z,1011.42
2018-06-28T11:01:46.978Z,1011.35
2018-06-28T11:02:46.918Z,1011.37
2018-06-28T11:03:46.990Z,1011.39
2018-06-28T11:04:47.181Z,1011.40
2018-06-28T11:05:46.950Z,1011.41
2018-06-28T11:06:47.044Z,1011.37
2018-06-28T11:07:47.015Z,1011.32
2018-06-28T11:08:47.074Z,1011.37
2018-06-28T11:09:47.067Z,1011.32
2018-06-28T11:10:46.857Z,1011.30
2018-06-28T11:11:47.008Z,1011.28
2018-06-28T11:12:47.006Z,1011.26
2018-06-28T11:13:47.074Z,1011.31
2018-06-28T11:14:46.955Z,1011.32
2018-06-28T11:15:47.079Z,1011.27
2018-06-28T11:16:47.018Z,1011.27
2018-06-28T11:17:46.990Z,1011.23
2018-06-28T11:18:47.030Z,1011.31
2018-06-28T11:19:47.013Z,1011.37
2018-06-28T11:20:47.023Z,1011.32
2018-06-28T11:21:47.008Z,1011.25
2018-06-28T11:22:47.084Z,1011.27
2018-06-28T11:23:47.033Z,1011.20
2018-06-28T11:24:47.080Z,1011.22
2018-06-28T11:25:47.149Z,1011.20
2018-06-28T11:26:46.959Z,1011.22
2018-06-28T11:27:47.019Z,1011.23
2018-06-28T11:28:47.014Z,1011.16
2018-06-28T11:29:47.014Z,1011.15
2018-06-28T11:30:47.021Z,1011.16
2018-06-28T11:31:47.085Z,1011.12
2018-06-28T11:32:47.034Z,1011.14
2018-06-28T11:33:47.058Z,1011.13
2018-06-28T11:34:47.061Z,1011.13
2018-06-28T11:35:47.064Z,1011.12
2018-06-28T11:36:47.062Z,1011.27
2018-06-28T11:37:46.998Z,1011.14
2018-06-28T11:38:46.995Z,1011.18
2018-06-28T11:39:47.065Z,1011.17
2018-06-28T11:40:47.081Z,1011.18
2018-06-28T11:41:47.065Z,1011.18
2018-06-28T11:42:47.025Z,1011.10
2018-06-28T11:43:47.063Z,1011.16
2018-06-28T11:44:47.049Z,1011.14
2018-06-28T11:45:46.988Z,1011.13
2018-06-28T11:46:47.007Z,1011.13
2018-06-28T11:47:47.074Z,1011.07
2018-06-28T11:48:47.048Z,1011.14
2018-06-28T11:49:47.094Z,1011.15
2018-06-28T11:50:47.047Z,1011.08
2018-06-28T11:51:47.045Z,1011.12
2018-06-28T11:52:47.094Z,1011.06
2018-06-28T11:53:47.111Z,1011.07
2018-06-28T11:54:47.008Z,1011.03
2018-06-28T11:55:47.038Z,1011.04
2018-06-28T11:56:47.101Z,1010.97
2018-06-28T11:57:46.982Z,1010.98
2018-06-28T11:58:47.114Z,1010.95
2018-06-28T11:59:47.031Z,1010.87
2018-06-28T12:00:47.112Z,1010.85
2018-06-28T12:01:46.986Z,1010.84
2018-06-28T12:02:47.048Z,1010.85
2018-06-28T12:03:47.107Z,1010.87
2018-06-28T12:04:47.064Z,1010.86
2018-06-28T12:05:46.942Z,1010.86